Time;durP1;ratioP1;P1;durP2;ratioP2;P2;SDS_P1;SDS_P2;PMS_P1;PMS_P2;Temp;Humidity;BMP_temperature;BMP_pressure;BME280_temperature;BME280_humidity;BME280_pressure;Samples;Min_cycle;Max_cycle;Signal;HPM_P1;HPM_P2
2022/03/13 00:00:17;;;;;;;13.82;8.02;;;7.10;60.30;;;;;;4935173;29;20031;-78
2022/03/13 00:02:45;;;;;;;20.45;8.13;;;7.10;60.70;;;;;;4924423;29;20058;-77
2022/03/13 00:05:14;;;;;;;14.07;7.60;;;7.00;60.60;;;;;;4917413;29;20028;-78
2022/03/13 00:07:41;;;;;;;16.58;8.32;;;7.00;60.30;;;;;;4917706;29;20066;-77
2022/03/13 00:10:07;;;;;;;20.63;7.85;;;7.00;60.80;;;;;;4918482;29;20466;-78
2022/03/13 00:12:34;;;;;;;15.60;8.10;;;7.00;59.80;;;;;;4934910;29;20042;-78
2022/03/13 00:15:09;;;;;;;18.42;7.72;;;6.90;60.40;;;;;;4918718;29;20127;-79
2022/03/13 00:17:35;;;;;;;16.42;7.70;;;6.90;60.50;;;;;;4917308;29;20044;-78
2022/03/13 00:20:03;;;;;;;16.05;8.43;;;6.90;61.00;;;;;;4918357;29;20111;-74
2022/03/13 00:22:31;;;;;;;14.13;7.90;;;6.90;61.00;;;;;;4933878;29;20030;-77
2022/03/13 00:25:00;;;;;;;15.40;7.73;;;6.90;60.90;;;;;;4934502;29;20163;-76
2022/03/13 00:27:26;;;;;;;14.83;8.20;;;6.90;61.00;;;;;;4934237;29;20039;-78
2022/03/13 00:29:52;;;;;;;18.43;8.97;;;7.00;60.70;;;;;;4935391;29;20028;-80
2022/03/13 00:32:17;;;;;;;17.17;7.88;;;6.90;60.60;;;;;;4917806;29;20050;-78
2022/03/13 00:34:43;;;;;;;17.97;8.97;;;7.00;60.90;;;;;;4917995;29;20430;-75
2022/03/13 00:37:10;;;;;;;15.17;8.67;;;6.90;61.10;;;;;;4917667;29;20121;-76
2022/03/13 00:39:38;;;;;;;17.38;8.10;;;7.00;60.70;;;;;;4916776;29;20083;-76
2022/03/13 00:42:04;;;;;;;15.43;8.47;;;7.00;60.80;;;;;;4917551;29;20038;-76
2022/03/13 00:44:30;;;;;;;16.30;8.50;;;7.00;60.50;;;;;;4933740;29;20443;-76
2022/03/13 00:46:56;;;;;;;15.68;7.82;;;6.90;60.70;;;;;;4917536;29;20036;-77
2022/03/13 00:49:22;;;;;;;14.63;8.73;;;6.90;60.70;;;;;;4916520;29;20058;-75
2022/03/13 00:51:47;;;;;;;17.37;8.57;;;6.90;60.40;;;;;;4917383;29;20115;-76
2022/03/13 00:54:13;;;;;;;16.50;8.23;;;6.90;60.10;;;;;;4934399;29;20034;-76
2022/03/13 00:56:39;;;;;;;15.90;8.10;;;6.90;60.10;;;;;;4933715;29;20027;-76
2022/03/13 00:59:05;;;;;;;19.48;8.30;;;6.90;59.90;;;;;;4917136;29;20044;-76
2022/03/13 01:01:30;;;;;;;18.58;8.30;;;6.90;60.00;;;;;;4916303;29;20035;-75
2022/03/13 01:03:56;;;;;;;18.40;8.17;;;6.80;60.40;;;;;;4917307;29;20066;-77
2022/03/13 01:06:22;;;;;;;15.53;7.90;;;6.90;59.70;;;;;;4916465;29;20465;-76
2022/03/13 01:08:49;;;;;;;18.43;8.40;;;6.80;59.80;;;;;;4917105;29;20036;-76
2022/03/13 01:11:18;;;;;;;15.83;8.07;;;6.80;60.20;;;;;;4917190;29;20123;-76
2022/03/13 01:13:44;;;;;;;17.37;7.77;;;6.80;60.10;;;;;;4917332;29;20027;-76
2022/03/13 01:16:29;;;;;;;16.60;8.50;;;6.70;60.00;;;;;;4917305;29;20103;-76
2022/03/13 01:18:58;;;;;;;17.27;8.23;;;6.70;60.40;;;;;;4920875;29;20043;-76
2022/03/13 01:21:24;;;;;;;16.48;8.23;;;6.60;60.00;;;;;;4920010;29;20114;-76
2022/03/13 01:24:05;;;;;;;14.07;7.15;;;6.60;59.60;;;;;;4921340;29;20039;-76
2022/03/13 01:26:34;;;;;;;19.93;8.63;;;6.50;59.90;;;;;;4920030;29;20028;-76
2022/03/13 01:29:02;;;;;;;15.30;8.47;;;6.50;59.90;;;;;;4937558;29;20140;-76
2022/03/13 01:31:32;;;;;;;15.70;8.17;;;6.50;59.90;;;;;;4937072;29;20118;-76
2022/03/13 01:33:59;;;;;;;15.13;8.10;;;6.50;59.70;;;;;;4922320;29;20043;-76
2022/03/13 01:36:25;;;;;;;15.83;8.37;;;6.50;59.80;;;;;;4952350;29;20106;-75
2022/03/13 01:38:57;;;;;;;17.17;8.43;;;6.50;59.80;;;;;;4920497;29;20071;-76
2022/03/13 01:41:24;;;;;;;18.90;8.97;;;6.50;59.90;;;;;;4919762;29;20032;-75
2022/03/13 01:43:50;;;;;;;15.30;8.17;;;6.50;60.10;;;;;;4937532;29;20114;-76
2022/03/13 01:46:16;;;;;;;15.63;8.30;;;6.50;60.40;;;;;;4919495;29;20518;-76
2022/03/13 01:48:57;;;;;;;22.17;9.23;;;6.50;60.40;;;;;;4937323;29;20039;-75
2022/03/13 01:51:25;;;;;;;17.53;8.63;;;6.50;60.30;;;;;;4919532;29;20046;-75
2022/03/13 01:53:53;;;;;;;16.10;7.93;;;6.50;61.00;;;;;;4920593;29;20082;-76
2022/03/13 01:56:20;;;;;;;18.27;9.03;;;6.50;61.40;;;;;;4936525;29;20087;-74
2022/03/13 01:58:53;;;;;;;16.60;9.30;;;6.50;61.20;;;;;;4920022;29;20032;-75
2022/03/13 02:01:20;;;;;;;17.10;8.50;;;6.40;60.90;;;;;;4919213;29;20114;-75
2022/03/13 02:03:47;;;;;;;16.97;8.40;;;6.40;60.90;;;;;;4919868;29;20036;-75
2022/03/13 02:06:13;;;;;;;17.10;8.23;;;6.30;61.20;;;;;;4919381;29;20028;-76
2022/03/13 02:08:40;;;;;;;21.10;8.57;;;6.30;60.90;;;;;;4919346;29;20040;-76
2022/03/13 02:11:07;;;;;;;20.57;9.43;;;6.30;61.10;;;;;;4936716;29;20047;-75
2022/03/13 02:13:34;;;;;;;18.47;8.67;;;6.30;61.60;;;;;;4919122;29;20031;-75
2022/03/13 02:16:00;;;;;;;19.57;8.90;;;6.30;61.20;;;;;;4919918;29;20453;-75
2022/03/13 02:18:26;;;;;;;17.27;8.30;;;6.20;61.60;;;;;;4935814;29;20032;-75
2022/03/13 02:20:53;;;;;;;14.53;7.97;;;6.20;62.30;;;;;;4919470;29;20035;-76
2022/03/13 02:23:28;;;;;;;20.63;8.23;;;6.20;62.00;;;;;;4918760;29;20487;-75
2022/03/13 02:25:58;;;;;;;18.50;9.17;;;6.20;63.10;;;;;;4919514;29;20034;-74
2022/03/13 02:28:27;;;;;;;18.10;8.70;;;6.10;62.10;;;;;;4935613;29;20036;-75
2022/03/13 02:30:57;;;;;;;13.43;7.53;;;6.10;62.00;;;;;;4919130;29;20051;-76
2022/03/13 02:33:23;;;;;;;16.50;8.57;;;6.10;62.00;;;;;;4935844;29;20039;-77
2022/03/13 02:35:57;;;;;;;18.93;7.63;;;6.00;62.10;;;;;;4919653;29;20039;-76
2022/03/13 02:38:24;;;;;;;18.70;8.13;;;6.00;62.60;;;;;;4935858;29;20115;-76
2022/03/13 02:40:51;;;;;;;15.83;7.73;;;6.00;62.20;;;;;;4936336;29;20028;-77
2022/03/13 02:43:17;;;;;;;17.97;8.00;;;6.00;62.10;;;;;;4918698;29;20119;-76
2022/03/13 02:45:43;;;;;;;15.40;7.40;;;5.90;62.10;;;;;;4919161;29;20118;-76
2022/03/13 02:48:10;;;;;;;16.93;8.43;;;6.00;62.50;;;;;;4936537;29;20047;-77
2022/03/13 02:50:36;;;;;;;15.83;8.40;;;5.90;62.50;;;;;;4918236;29;20083;-77
2022/03/13 02:53:03;;;;;;;15.37;8.20;;;5.90;63.00;;;;;;4919076;29;20027;-77
2022/03/13 02:55:29;;;;;;;14.57;7.73;;;5.90;62.60;;;;;;4918480;29;20533;-75
2022/03/13 02:57:55;;;;;;;14.67;7.57;;;5.90;62.80;;;;;;4919085;29;20032;-75
2022/03/13 03:00:37;;;;;;;15.43;7.80;;;5.90;64.10;;;;;;4918004;29;20034;-75
2022/03/13 03:03:03;;;;;;;16.83;8.00;;;5.80;64.30;;;;;;4935815;29;20031;-75
2022/03/13 03:05:31;;;;;;;17.87;8.20;;;5.70;64.70;;;;;;4918655;29;20039;-75
2022/03/13 03:07:57;;;;;;;17.17;8.17;;;5.60;65.60;;;;;;4919061;29;20039;-75
2022/03/13 03:10:23;;;;;;;18.87;8.13;;;5.50;64.50;;;;;;4936115;29;20027;-76
2022/03/13 03:12:48;;;;;;;18.07;8.07;;;5.50;65.80;;;;;;4936308;29;20032;-77
2022/03/13 03:15:18;;;;;;;16.70;7.67;;;5.50;65.50;;;;;;4919285;29;20461;-76
2022/03/13 03:17:43;;;;;;;17.40;8.17;;;5.50;64.80;;;;;;4918590;29;20039;-76
2022/03/13 03:20:11;;;;;;;15.63;8.37;;;5.50;64.40;;;;;;4919157;29;20115;-76
2022/03/13 03:22:36;;;;;;;16.97;7.93;;;5.50;64.40;;;;;;4918474;29;20099;-75
2022/03/13 03:25:03;;;;;;;14.17;7.33;;;5.40;64.70;;;;;;4918686;29;20024;-75
2022/03/13 03:27:30;;;;;;;16.97;7.70;;;5.40;66.30;;;;;;4918330;29;20122;-75
2022/03/13 03:29:57;;;;;;;16.17;7.43;;;5.40;66.10;;;;;;4919142;29;20027;-75
2022/03/13 03:32:22;;;;;;;15.37;7.67;;;5.30;65.30;;;;;;4935306;29;20122;-75
2022/03/13 03:34:48;;;;;;;15.37;7.20;;;5.30;65.40;;;;;;4918881;29;20122;-77
2022/03/13 03:37:14;;;;;;;15.77;7.87;;;5.30;66.10;;;;;;4918853;29;20555;-78
2022/03/13 03:39:39;;;;;;;15.20;7.47;;;5.20;66.50;;;;;;4917299;29;20028;-78
2022/03/13 03:42:05;;;;;;;15.87;7.87;;;5.20;67.10;;;;;;4918908;29;20035;-78
2022/03/13 03:44:31;;;;;;;17.87;7.93;;;5.10;67.40;;;;;;4917957;29;20034;-78
2022/03/13 03:46:57;;;;;;;18.67;8.30;;;5.10;68.00;;;;;;4918706;29;20032;-78
2022/03/13 03:49:23;;;;;;;14.93;7.20;;;5.00;67.80;;;;;;4934909;29;20481;-78
2022/03/13 03:51:50;;;;;;;17.13;7.80;;;5.00;67.40;;;;;;4919366;29;20138;-75
2022/03/13 03:54:16;;;;;;;17.60;8.07;;;5.00;68.90;;;;;;4918557;29;20130;-75
2022/03/13 03:56:42;;;;;;;14.57;8.07;;;4.90;68.70;;;;;;4917876;29;20868;-76
2022/03/13 03:59:08;;;;;;;17.03;8.00;;;4.90;69.80;;;;;;4918512;29;20103;-76
2022/03/13 04:01:38;;;;;;;18.33;8.50;;;4.80;69.70;;;;;;4917748;29;20028;-76
2022/03/13 04:04:05;;;;;;;14.50;7.47;;;4.70;70.70;;;;;;4918515;29;20046;-75
2022/03/13 04:06:33;;;;;;;15.40;7.90;;;4.60;71.60;;;;;;4934680;29;20082;-75
2022/03/13 04:08:59;;;;;;;16.53;7.33;;;4.60;72.40;;;;;;4918354;29;20044;-75
2022/03/13 04:11:25;;;;;;;16.57;7.77;;;4.50;72.80;;;;;;4917726;29;20028;-75
2022/03/13 04:13:51;;;;;;;16.63;7.97;;;4.50;72.70;;;;;;4918447;29;20075;-76
2022/03/13 04:16:16;;;;;;;15.13;7.87;;;4.50;72.80;;;;;;4918178;29;20036;-75
2022/03/13 04:18:42;;;;;;;19.07;8.50;;;4.50;72.90;;;;;;4917570;29;20028;-75
2022/03/13 04:21:08;;;;;;;17.77;8.17;;;4.50;72.60;;;;;;4917805;29;20129;-76
2022/03/13 04:23:35;;;;;;;23.37;7.60;;;4.40;73.60;;;;;;4917248;29;20032;-76
2022/03/13 04:26:03;;;;;;;16.37;7.53;;;4.40;74.00;;;;;;4918172;29;20036;-76
2022/03/13 04:28:30;;;;;;;17.97;8.10;;;4.40;75.70;;;;;;4917615;29;20589;-75
2022/03/13 04:30:59;;;;;;;18.53;7.93;;;4.30;75.70;;;;;;4935227;29;20031;-76
2022/03/13 04:33:26;;;;;;;19.23;8.60;;;4.30;76.90;;;;;;4917415;29;20470;-76
2022/03/13 04:35:53;;;;;;;16.17;7.57;;;4.20;76.60;;;;;;4918532;29;20421;-76
2022/03/13 04:38:19;;;;;;;15.87;7.87;;;4.20;77.30;;;;;;4918062;29;20032;-76
2022/03/13 04:40:45;;;;;;;16.00;8.10;;;4.20;76.80;;;;;;4917321;29;20872;-75
2022/03/13 04:43:11;;;;;;;15.00;8.50;;;4.10;77.30;;;;;;4918076;29;20030;-75
2022/03/13 04:45:37;;;;;;;17.90;8.30;;;4.10;78.70;;;;;;4934334;29;20027;-75
2022/03/13 04:48:03;;;;;;;17.80;8.60;;;4.10;78.30;;;;;;4918180;29;20032;-75
2022/03/13 04:50:28;;;;;;;17.20;7.80;;;4.20;77.20;;;;;;4934414;29;20545;-76
2022/03/13 04:52:54;;;;;;;17.90;8.67;;;4.20;77.20;;;;;;4921039;29;20042;-75
2022/03/13 04:55:20;;;;;;;17.10;7.80;;;4.30;78.20;;;;;;4921901;29;20024;-76
2022/03/13 04:57:45;;;;;;;16.80;8.13;;;4.30;79.10;;;;;;4937876;29;20036;-75
2022/03/13 05:00:11;;;;;;;18.10;8.53;;;4.20;78.90;;;;;;4921435;29;20032;-75
2022/03/13 05:02:37;;;;;;;14.90;8.03;;;4.10;79.70;;;;;;4937931;29;20039;-75
2022/03/13 05:05:04;;;;;;;21.77;8.07;;;4.10;80.50;;;;;;4921751;29;20039;-76
2022/03/13 05:07:30;;;;;;;16.53;8.03;;;4.00;81.80;;;;;;4937898;29;20039;-74
2022/03/13 05:09:55;;;;;;;16.23;7.83;;;3.90;83.20;;;;;;4921562;29;20039;-75
2022/03/13 05:12:27;;;;;;;20.17;8.30;;;3.90;84.30;;;;;;4938615;29;20035;-76
2022/03/13 05:14:52;;;;;;;14.20;7.65;;;3.90;84.30;;;;;;4921721;29;20032;-77
2022/03/13 05:17:18;;;;;;;16.73;8.93;;;3.90;85.50;;;;;;4921364;29;20039;-75
2022/03/13 05:19:44;;;;;;;15.83;7.37;;;3.70;86.60;;;;;;4920559;29;20712;-74
2022/03/13 05:22:10;;;;;;;14.17;8.10;;;3.60;87.00;;;;;;4921303;29;20056;-76
2022/03/13 05:24:36;;;;;;;17.10;8.60;;;3.60;89.00;;;;;;4937508;29;20465;-75
2022/03/13 05:27:02;;;;;;;18.53;8.97;;;3.50;89.90;;;;;;4921379;29;20027;-76
2022/03/13 05:29:27;;;;;;;15.37;8.47;;;3.40;90.60;;;;;;4920364;29;20389;-75
2022/03/13 05:31:53;;;;;;;16.50;8.27;;;3.40;91.00;;;;;;4921056;29;20024;-75
2022/03/13 05:34:19;;;;;;;16.30;8.73;;;3.40;91.10;;;;;;4938098;29;20040;-76
2022/03/13 05:36:46;;;;;;;19.43;8.80;;;3.40;91.00;;;;;;4920332;29;20115;-75
2022/03/13 05:39:12;;;;;;;15.97;7.87;;;3.50;90.80;;;;;;4937893;29;20028;-75
2022/03/13 05:41:40;;;;;;;19.13;8.87;;;3.50;91.00;;;;;;4920223;29;20035;-77
2022/03/13 05:44:09;;;;;;;17.50;8.63;;;3.60;90.80;;;;;;4937912;29;20466;-75
2022/03/13 05:46:35;;;;;;;17.50;7.80;;;3.40;91.50;;;;;;4920132;29;20075;-76
2022/03/13 05:49:02;;;;;;;16.87;8.37;;;3.40;91.90;;;;;;4920649;29;20032;-76
2022/03/13 05:51:27;;;;;;;19.07;8.13;;;3.40;92.10;;;;;;4920459;29;20040;-75
2022/03/13 05:53:53;;;;;;;14.10;7.80;;;3.30;92.60;;;;;;4920317;29;20035;-76
2022/03/13 05:56:19;;;;;;;18.77;8.83;;;3.40;92.00;;;;;;4938052;29;20032;-76
2022/03/13 05:58:44;;;;;;;15.20;7.77;;;3.40;91.80;;;;;;4919721;29;20079;-76
2022/03/13 06:01:11;;;;;;;17.07;8.47;;;3.30;91.70;;;;;;4920538;29;20058;-75
2022/03/13 06:03:38;;;;;;;18.60;8.73;;;3.30;92.40;;;;;;4919375;29;20036;-75
2022/03/13 06:06:04;;;;;;;17.37;8.17;;;3.30;92.40;;;;;;4920532;29;20032;-76
2022/03/13 06:08:31;;;;;;;17.00;8.57;;;3.20;92.90;;;;;;4919888;29;20122;-75
2022/03/13 06:11:00;;;;;;;19.37;8.57;;;3.20;93.40;;;;;;4937500;29;20035;-76
2022/03/13 06:13:25;;;;;;;18.23;8.53;;;3.30;93.40;;;;;;4937370;29;20095;-76
2022/03/13 06:15:51;;;;;;;18.63;8.73;;;3.30;93.70;;;;;;4919480;29;20028;-75
2022/03/13 06:18:17;;;;;;;17.47;8.43;;;3.20;94.20;;;;;;4920311;29;20035;-76
2022/03/13 06:20:43;;;;;;;18.20;8.47;;;3.20;94.20;;;;;;4936530;29;20028;-75
2022/03/13 06:23:10;;;;;;;19.63;8.53;;;3.20;94.00;;;;;;4920229;29;20035;-76
2022/03/13 06:25:35;;;;;;;16.43;8.40;;;3.20;94.00;;;;;;4936528;29;20389;-76
2022/03/13 06:28:01;;;;;;;16.80;8.47;;;3.20;94.30;;;;;;4937324;29;20032;-76
2022/03/13 06:30:28;;;;;;;16.10;7.73;;;3.20;93.90;;;;;;4920189;29;20028;-76
2022/03/13 06:32:54;;;;;;;16.60;8.37;;;3.20;93.70;;;;;;4936939;29;20028;-76
2022/03/13 06:35:22;;;;;;;16.60;8.53;;;3.10;93.80;;;;;;4920086;29;20030;-76
2022/03/13 06:37:48;;;;;;;21.60;9.40;;;3.10;93.90;;;;;;4936015;29;20031;-76
2022/03/13 06:40:17;;;;;;;20.07;9.43;;;3.00;94.30;;;;;;4937068;29;20028;-77
2022/03/13 06:42:44;;;;;;;18.50;9.23;;;3.00;94.40;;;;;;4918978;29;20238;-75
2022/03/13 06:45:10;;;;;;;18.53;9.13;;;3.10;94.80;;;;;;4920031;29;20031;-76
2022/03/13 06:47:41;;;;;;;20.40;9.23;;;3.10;95.10;;;;;;4918946;29;20058;-76
2022/03/13 06:50:08;;;;;;;19.43;9.37;;;3.20;96.00;;;;;;4919750;29;20054;-76
2022/03/13 06:52:34;;;;;;;19.40;9.67;;;3.30;96.70;;;;;;4918928;29;20493;-75
2022/03/13 06:55:01;;;;;;;21.00;9.87;;;3.40;96.40;;;;;;4919856;29;20152;-76
2022/03/13 06:57:26;;;;;;;23.07;10.17;;;3.50;96.80;;;;;;4936623;29;20032;-76
2022/03/13 06:59:52;;;;;;;20.93;10.23;;;3.50;97.00;;;;;;4918788;29;20035;-76
2022/03/13 07:02:17;;;;;;;20.13;11.07;;;3.60;97.10;;;;;;4919300;29;20031;-76
2022/03/13 07:04:43;;;;;;;20.53;10.17;;;3.70;96.90;;;;;;4918872;29;20453;-76
2022/03/13 07:07:08;;;;;;;22.93;10.50;;;3.80;97.50;;;;;;4919701;29;20059;-76
2022/03/13 07:09:34;;;;;;;20.83;10.20;;;3.80;96.90;;;;;;4935557;29;20031;-76
2022/03/13 07:12:00;;;;;;;20.87;10.37;;;3.90;97.10;;;;;;4919810;29;20039;-76
2022/03/13 07:14:26;;;;;;;20.27;10.10;;;4.00;96.70;;;;;;4919050;29;20074;-76
2022/03/13 07:16:52;;;;;;;19.93;9.90;;;4.10;96.70;;;;;;4918677;29;20647;-76
2022/03/13 07:19:18;;;;;;;20.87;9.87;;;4.20;97.00;;;;;;4918849;29;20393;-76
2022/03/13 07:21:44;;;;;;;19.50;10.63;;;4.30;96.30;;;;;;4918516;29;20028;-76
2022/03/13 07:24:10;;;;;;;20.07;9.90;;;4.50;96.10;;;;;;4919293;29;20027;-77
2022/03/13 07:26:35;;;;;;;22.93;10.00;;;4.50;96.30;;;;;;4935345;29;20503;-76
2022/03/13 07:29:02;;;;;;;20.13;10.30;;;4.70;96.20;;;;;;4919203;29;20119;-76
2022/03/13 07:31:31;;;;;;;24.13;10.43;;;4.90;96.00;;;;;;4936276;29;20034;-76
2022/03/13 07:33:57;;;;;;;21.50;11.30;;;5.00;96.50;;;;;;4935609;29;20110;-76
2022/03/13 07:36:23;;;;;;;21.77;10.67;;;5.10;96.30;;;;;;4918907;29;20377;-76
2022/03/13 07:38:49;;;;;;;23.03;10.30;;;5.20;95.90;;;;;;4918233;29;20086;-76
2022/03/13 07:41:15;;;;;;;20.27;11.23;;;5.30;96.00;;;;;;4918937;29;20039;-76
2022/03/13 07:43:41;;;;;;;22.23;10.80;;;5.30;96.10;;;;;;4935161;29;20369;-76
2022/03/13 07:46:06;;;;;;;22.37;11.07;;;5.40;95.80;;;;;;4918880;29;20380;-76
2022/03/13 07:48:34;;;;;;;22.90;10.43;;;5.50;95.60;;;;;;4918613;29;20035;-77
2022/03/13 07:51:01;;;;;;;23.27;11.23;;;5.70;96.10;;;;;;4935422;29;20479;-76
2022/03/13 07:53:28;;;;;;;20.60;10.67;;;5.80;95.10;;;;;;4918629;29;20110;-77
2022/03/13 07:55:54;;;;;;;20.53;10.47;;;5.80;94.70;;;;;;4917940;29;20028;-77
2022/03/13 07:58:20;;;;;;;20.47;10.23;;;5.80;95.30;;;;;;4918787;29;20039;-76
2022/03/13 08:00:45;;;;;;;23.23;11.17;;;5.90;94.50;;;;;;4935168;29;20444;-77
2022/03/13 08:03:12;;;;;;;20.30;10.57;;;5.90;94.00;;;;;;4935260;29;20119;-76
2022/03/13 08:05:38;;;;;;;23.60;10.83;;;6.00;93.50;;;;;;4934762;29;20024;-77
2022/03/13 08:08:04;;;;;;;23.17;11.40;;;6.10;93.40;;;;;;4918728;29;20157;-77
2022/03/13 08:10:30;;;;;;;22.83;10.40;;;6.10;94.00;;;;;;4918572;29;20521;-77
2022/03/13 08:12:56;;;;;;;21.73;10.37;;;6.10;93.80;;;;;;4917763;29;20118;-76
2022/03/13 08:15:22;;;;;;;22.07;10.67;;;6.20;93.20;;;;;;4935497;29;20024;-76
2022/03/13 08:17:48;;;;;;;21.03;10.50;;;6.30;93.60;;;;;;4934385;29;20059;-76
2022/03/13 08:20:14;;;;;;;31.17;11.23;;;6.40;93.20;;;;;;4918293;29;20059;-76
2022/03/13 08:22:40;;;;;;;18.53;10.33;;;6.50;91.90;;;;;;4917145;29;20024;-76
2022/03/13 08:25:07;;;;;;;24.00;11.40;;;6.60;91.60;;;;;;4934470;29;20110;-75
2022/03/13 08:27:34;;;;;;;22.27;11.70;;;6.70;90.70;;;;;;4917979;29;20049;-75
2022/03/13 08:30:03;;;;;;;24.03;11.13;;;6.60;90.20;;;;;;4933872;29;20024;-75
2022/03/13 08:32:29;;;;;;;24.10;11.43;;;6.60;88.30;;;;;;4917762;29;20038;-75
2022/03/13 08:34:55;;;;;;;23.77;11.87;;;6.60;86.60;;;;;;4917385;29;20314;-75
2022/03/13 08:37:20;;;;;;;22.57;11.57;;;6.80;87.00;;;;;;4918004;29;20115;-76
2022/03/13 08:39:46;;;;;;;23.97;11.30;;;7.00;86.20;;;;;;4917286;29;20035;-75
2022/03/13 08:42:12;;;;;;;24.53;11.23;;;7.10;84.20;;;;;;4918076;29;20032;-75
2022/03/13 08:44:37;;;;;;;25.40;12.17;;;7.20;84.80;;;;;;4898891;29;20032;-75
2022/03/13 08:47:04;;;;;;;20.87;11.07;;;7.20;83.80;;;;;;4898398;29;20123;-75
2022/03/13 08:49:29;;;;;;;24.40;10.73;;;7.20;83.70;;;;;;4915952;29;20489;-76
2022/03/13 08:51:55;;;;;;;24.77;11.63;;;7.30;83.50;;;;;;4929335;29;20046;-75
2022/03/13 08:54:21;;;;;;;22.15;11.52;;;7.40;82.20;;;;;;4917308;29;20488;-74
2022/03/13 08:56:48;;;;;;;22.45;11.23;;;7.40;81.90;;;;;;4916991;29;20028;-74
2022/03/13 08:59:15;;;;;;;22.27;11.50;;;7.50;82.90;;;;;;4917693;29;20027;-74
2022/03/13 09:01:41;;;;;;;22.52;11.65;;;7.50;81.10;;;;;;4921297;29;20422;-76
2022/03/13 09:04:07;;;;;;;18.17;10.23;;;7.60;83.40;;;;;;4903484;29;20085;-75
2022/03/13 09:06:33;;;;;;;22.52;11.10;;;7.70;80.80;;;;;;4924948;29;20032;-75
2022/03/13 09:08:58;;;;;;;22.77;11.55;;;7.70;81.40;;;;;;4925198;29;20032;-74
2022/03/13 09:11:24;;;;;;;25.67;11.60;;;7.80;81.70;;;;;;4924562;29;20028;-75
2022/03/13 09:13:50;;;;;;;20.10;10.57;;;7.90;79.80;;;;;;4905952;29;20028;-74
2022/03/13 09:16:15;;;;;;;21.30;10.85;;;7.90;78.10;;;;;;4926379;29;20032;-75
2022/03/13 09:18:41;;;;;;;21.58;10.55;;;8.00;76.40;;;;;;4922162;29;20516;-75
2022/03/13 09:21:08;;;;;;;22.35;11.25;;;8.10;74.30;;;;;;4906187;29;20024;-75
2022/03/13 09:23:34;;;;;;;22.55;10.40;;;8.10;73.20;;;;;;4926149;29;20024;-74
2022/03/13 09:25:59;;;;;;;21.67;10.68;;;8.20;73.10;;;;;;4908882;29;20160;-76
2022/03/13 09:28:26;;;;;;;22.00;11.00;;;8.20;72.70;;;;;;4929242;29;20185;-75
2022/03/13 09:30:52;;;;;;;22.20;10.35;;;8.30;73.10;;;;;;4928152;29;20028;-74
2022/03/13 09:33:18;;;;;;;21.35;10.82;;;8.30;72.40;;;;;;4907426;29;20039;-75
2022/03/13 09:35:44;;;;;;;23.17;11.13;;;8.40;72.30;;;;;;4904708;29;20028;-75
2022/03/13 09:38:09;;;;;;;21.15;10.50;;;8.50;71.20;;;;;;4907542;29;20612;-75
2022/03/13 09:40:35;;;;;;;23.73;11.02;;;8.60;70.00;;;;;;4911772;29;20138;-75
2022/03/13 09:43:05;;;;;;;24.60;11.90;;;8.70;69.50;;;;;;4927140;29;20381;-75
2022/03/13 09:45:31;;;;;;;25.55;10.93;;;8.80;68.60;;;;;;4912487;29;20125;-76
2022/03/13 09:47:57;;;;;;;20.38;10.45;;;8.80;68.90;;;;;;4908541;29;20473;-76
2022/03/13 09:50:23;;;;;;;20.52;10.27;;;8.90;68.50;;;;;;4910342;29;20055;-76
2022/03/13 09:52:49;;;;;;;20.02;10.15;;;9.10;66.90;;;;;;4909435;29;20020;-75
2022/03/13 09:55:15;;;;;;;20.38;9.98;;;9.20;66.40;;;;;;4911316;29;20065;-76
2022/03/13 09:57:43;;;;;;;20.00;10.73;;;9.30;67.20;;;;;;4908553;29;20031;-75
2022/03/13 10:00:11;;;;;;;19.15;10.43;;;9.40;67.30;;;;;;4926141;29;20028;-76
2022/03/13 10:02:38;;;;;;;19.48;10.57;;;9.40;66.20;;;;;;4926231;29;20032;-76
2022/03/13 10:05:12;;;;;;;19.98;10.43;;;9.50;64.90;;;;;;4911498;29;20035;-77
2022/03/13 10:07:52;;;;;;;20.67;10.20;;;9.50;63.40;;;;;;4908670;29;20123;-77
2022/03/13 10:10:17;;;;;;;20.42;10.50;;;9.60;63.00;;;;;;4907407;29;20433;-76
2022/03/13 10:12:43;;;;;;;20.67;10.15;;;9.70;63.60;;;;;;4908631;29;20052;-76
2022/03/13 10:15:09;;;;;;;20.67;11.23;;;9.90;63.60;;;;;;4909396;29;20021;-77
2022/03/13 10:17:37;;;;;;;26.92;11.48;;;10.00;62.60;;;;;;4925966;29;20111;-76
2022/03/13 10:20:17;;;;;;;22.58;11.35;;;10.10;61.40;;;;;;4912362;29;20091;-77
2022/03/13 10:22:44;;;;;;;20.08;10.63;;;10.20;61.10;;;;;;4926097;29;20052;-76
2022/03/13 10:25:13;;;;;;;24.92;11.15;;;10.30;63.20;;;;;;4906667;29;20115;-76
2022/03/13 10:27:39;;;;;;;21.42;11.30;;;10.40;62.60;;;;;;4911773;29;20027;-76
2022/03/13 10:30:09;;;;;;;20.85;11.20;;;10.60;63.60;;;;;;4908842;29;20026;-76
2022/03/13 10:32:36;;;;;;;26.63;11.00;;;10.60;62.30;;;;;;4908555;29;20466;-74
2022/03/13 10:35:02;;;;;;;23.52;11.73;;;10.60;61.60;;;;;;4924767;29;20037;-76
2022/03/13 10:37:37;;;;;;;25.40;10.90;;;10.70;61.30;;;;;;4923671;29;20038;-77
2022/03/13 10:40:16;;;;;;;22.65;11.27;;;10.80;60.30;;;;;;4928875;29;20477;-76
2022/03/13 10:42:43;;;;;;;24.75;11.18;;;10.70;59.60;;;;;;4912641;29;20036;-77
2022/03/13 10:45:34;;;;;;;22.00;11.63;;;10.80;59.60;;;;;;4904674;29;20023;-78
2022/03/13 10:48:20;;;;;;;22.02;11.07;;;10.80;59.50;;;;;;4919234;29;20035;-78
2022/03/13 10:50:47;;;;;;;22.60;10.80;;;11.00;59.30;;;;;;4918939;29;20059;-77
2022/03/13 10:53:14;;;;;;;22.63;11.05;;;11.10;59.20;;;;;;4918726;29;20465;-77
2022/03/13 10:55:41;;;;;;;22.83;11.40;;;11.10;59.00;;;;;;4936937;29;20027;-77
2022/03/13 10:58:07;;;;;;;19.77;10.98;;;11.20;59.20;;;;;;4918499;29;20043;-77
2022/03/13 11:00:34;;;;;;;22.38;11.23;;;11.30;58.90;;;;;;4918793;29;20032;-78
2022/03/13 11:03:17;;;;;;;21.33;11.38;;;11.30;59.10;;;;;;4918173;29;20027;-77
2022/03/13 11:05:42;;;;;;;24.05;11.73;;;11.60;59.80;;;;;;4935855;29;20026;-79
2022/03/13 11:08:08;;;;;;;21.13;11.32;;;11.70;57.50;;;;;;4918723;29;20031;-78
2022/03/13 11:10:37;;;;;;;20.73;10.85;;;11.80;58.20;;;;;;4919080;29;20442;-79
2022/03/13 11:13:06;;;;;;;24.20;11.65;;;11.90;57.70;;;;;;4934830;29;20040;-78
2022/03/13 11:15:35;;;;;;;22.20;11.60;;;11.90;56.90;;;;;;4919120;29;20485;-79
2022/03/13 11:18:02;;;;;;;23.23;11.45;;;12.00;56.70;;;;;;4935784;29;20507;-80
2022/03/13 11:20:30;;;;;;;25.27;11.88;;;12.10;57.50;;;;;;4919234;29;20377;-78
2022/03/13 11:22:56;;;;;;;21.92;11.15;;;12.20;57.20;;;;;;4944489;29;20071;-76
2022/03/13 11:25:23;;;;;;;23.20;11.85;;;12.40;57.10;;;;;;4924240;29;20051;-78
2022/03/13 11:27:51;;;;;;;24.45;12.32;;;12.50;57.70;;;;;;4917497;29;20031;-77
2022/03/13 11:30:31;;;;;;;21.80;11.23;;;12.50;56.50;;;;;;4935257;29;20028;-76
2022/03/13 11:32:57;;;;;;;23.48;12.15;;;12.60;57.30;;;;;;4916530;29;20039;-74
2022/03/13 11:35:25;;;;;;;26.13;13.25;;;12.60;56.00;;;;;;4918250;29;20047;-76
2022/03/13 11:38:00;;;;;;;24.38;12.13;;;12.70;58.20;;;;;;4925805;29;20067;-76
2022/03/13 11:40:38;;;;;;;23.77;11.70;;;12.80;60.60;;;;;;4911157;29;20119;-77
2022/03/13 11:43:21;;;;;;;26.20;11.95;;;12.80;59.50;;;;;;4915266;29;20028;-78
2022/03/13 11:45:54;;;;;;;23.77;12.75;;;12.90;59.00;;;;;;4917580;29;20032;-77
2022/03/13 11:48:23;;;;;;;23.17;12.20;;;12.80;58.80;;;;;;4935119;29;20039;-76
2022/03/13 11:51:04;;;;;;;26.10;12.20;;;12.80;58.30;;;;;;4917105;29;20054;-76
2022/03/13 11:53:42;;;;;;;23.25;11.82;;;12.90;57.40;;;;;;4918217;29;20026;-76
2022/03/13 11:56:11;;;;;;;23.77;12.45;;;13.00;60.20;;;;;;4917861;29;20537;-77
2022/03/13 11:58:51;;;;;;;25.45;11.77;;;13.20;59.80;;;;;;4917763;29;20047;-76
2022/03/13 12:01:21;;;;;;;22.17;11.85;;;13.30;57.00;;;;;;4903832;29;20099;-77
2022/03/13 12:04:03;;;;;;;23.30;12.48;;;13.50;58.40;;;;;;4926497;29;20486;-76
2022/03/13 12:06:39;;;;;;;;;;;13.60;57.30;;;;;;4930355;29;20059;-76
2022/03/13 12:09:09;;;;;;;22.92;12.25;;;13.80;56.70;;;;;;4901495;29;19903;-76
2022/03/13 12:11:47;;;;;;;24.65;12.38;;;13.90;55.90;;;;;;4917941;29;20183;-76
2022/03/13 12:14:14;;;;;;;26.52;12.45;;;14.00;55.40;;;;;;4917998;29;20039;-76
2022/03/13 12:16:43;;;;;;;20.38;11.30;;;14.10;54.30;;;;;;4917699;29;20032;-76
2022/03/13 12:19:10;;;;;;;23.52;11.73;;;14.40;54.40;;;;;;4917564;29;20094;-77
2022/03/13 12:21:37;;;;;;;24.80;12.40;;;14.50;52.70;;;;;;4917039;29;20083;-73
2022/03/13 12:24:20;;;;;;;21.77;11.55;;;14.60;51.80;;;;;;4916767;29;20520;-74
2022/03/13 12:26:50;;;;;;;23.77;11.52;;;14.90;52.30;;;;;;4916659;29;20035;-74
2022/03/13 12:29:17;;;;;;;22.17;12.05;;;15.10;53.00;;;;;;4934409;29;20036;-75
2022/03/13 12:31:53;;;;;;;25.00;12.55;;;15.40;50.40;;;;;;4934187;29;20032;-74
2022/03/13 12:34:25;;;;;;;22.20;12.13;;;15.70;50.50;;;;;;4934767;29;20040;-73
2022/03/13 12:36:53;;;;;;;23.23;12.10;;;15.90;49.00;;;;;;4916587;29;20028;-74
2022/03/13 12:39:20;;;;;;;23.27;11.52;;;16.10;49.50;;;;;;4917445;29;20032;-73
2022/03/13 12:41:55;;;;;;;26.50;12.93;;;16.30;49.60;;;;;;4933832;29;20421;-74